SHHS weather

Hospital del Salvador Heliport
Santiago, Santiago Metropolitan Region, Chile

Public forecast

Using degrees Celsius for public forecast. Weather courtesy of forecast.io.

Closest aviation weather report (METAR) to Hospital del Salvador Heliport

Closest report is Eulogio Sánchez Airport, 3.9 nm (7.3 km) ESE. Retrieved 2020/04/07 22:00 UTC (56 minutes ago):

SCTB 072200Z 25004KT 190V300 9999 SCT100 29/01 Q1013

Closest aviation forecast (TAF) to Hospital del Salvador Heliport

Closest forecast is Comodoro Arturo Merino Benítez International Airport, 8.6 nm (16.0 km) WNW. Retrieved 2020/04/07 18:00 UTC (5 hours ago):

TAF COR SCEL 071654Z 0718/0818 21010KT CAVOK TX31/0719Z TN09/0811Z BECMG 0802/0804 17005KT TEMPO 0810/0813 VRB02KT 7000 NSC BECMG 0815/0817 22010KT